<?xml version="1.0" encoding="utf-8"?>
<gpx xmlns:xsi="http://www.w3.org/2001/XMLSchema-instance" xmlns:xsd="http://www.w3.org/2001/XMLSchema" version="1.1" creator="Shapelink.com" xmlns="http://www.topografix.com/GPX/1/1" xmlns:gpxtpx="http://www.garmin.com/xmlschemas/TrackPointExtension/v1">
  <metadata>
    <name>Övrigt 1.88 km, 2019-01-22</name>
    <desc></desc>
    <author><name>Marian Moron</name></author> 
    <time>2019-01-22T21:06:34Z</time>
  </metadata>
  <trk>
    <name>Övrigt 1.88 km, 2019-01-22</name>
    <trkseg>
      <trkpt lat="51.229909356883" lon="4.458326658851">
        <ele>14.8</ele>
        <time>2019-01-22T21:06:34Z</time>
      </trkpt>
      <trkpt lat="51.229946404881" lon="4.458547689554">
        <ele>14.6</ele>
        <time>2019-01-22T21:07:05Z</time>
      </trkpt>
      <trkpt lat="51.2299883982" lon="4.458789926464">
        <ele>15.4</ele>
        <time>2019-01-22T21:07:33Z</time>
      </trkpt>
      <trkpt lat="51.230072803933" lon="4.458783388582">
        <ele>15.6</ele>
        <time>2019-01-22T21:07:46Z</time>
      </trkpt>
      <trkpt lat="51.230193000379" lon="4.458740976168">
        <ele>14.6</ele>
        <time>2019-01-22T21:08:10Z</time>
      </trkpt>
      <trkpt lat="51.230272628429" lon="4.458742820186">
        <ele>13.6</ele>
        <time>2019-01-22T21:08:23Z</time>
      </trkpt>
      <trkpt lat="51.230326859322" lon="4.458730414974">
        <ele>12</ele>
        <time>2019-01-22T21:08:39Z</time>
      </trkpt>
      <trkpt lat="51.230764310683" lon="4.458566548829">
        <ele>8.2</ele>
        <time>2019-01-22T21:09:33Z</time>
      </trkpt>
      <trkpt lat="51.230812087513" lon="4.458571913245">
        <ele>8.8</ele>
        <time>2019-01-22T21:09:38Z</time>
      </trkpt>
      <trkpt lat="51.231215675998" lon="4.458321126797">
        <ele>10.8</ele>
        <time>2019-01-22T21:10:05Z</time>
      </trkpt>
      <trkpt lat="51.231245599381" lon="4.458316265295">
        <ele>10.8</ele>
        <time>2019-01-22T21:10:08Z</time>
      </trkpt>
      <trkpt lat="51.231351043683" lon="4.458279301116">
        <ele>9.2</ele>
        <time>2019-01-22T21:10:21Z</time>
      </trkpt>
      <trkpt lat="51.231654384644" lon="4.458453644636">
        <ele>0.6</ele>
        <time>2019-01-22T21:11:42Z</time>
      </trkpt>
      <trkpt lat="51.231764690448" lon="4.459149677612">
        <ele>0</ele>
        <time>2019-01-22T21:12:13Z</time>
      </trkpt>
      <trkpt lat="51.231808192509" lon="4.459400799336">
        <ele>0</ele>
        <time>2019-01-22T21:12:42Z</time>
      </trkpt>
      <trkpt lat="51.231952025913" lon="4.460065232549">
        <ele>0</ele>
        <time>2019-01-22T21:13:26Z</time>
      </trkpt>
      <trkpt lat="51.23201178886" lon="4.460450883768">
        <ele>0</ele>
        <time>2019-01-22T21:13:57Z</time>
      </trkpt>
      <trkpt lat="51.232020086941" lon="4.460660515087">
        <ele>0.4</ele>
        <time>2019-01-22T21:14:16Z</time>
      </trkpt>
      <trkpt lat="51.232031989239" lon="4.460858495565">
        <ele>0</ele>
        <time>2019-01-22T21:14:33Z</time>
      </trkpt>
      <trkpt lat="51.232018075285" lon="4.461187988054">
        <ele>7.2</ele>
        <time>2019-01-22T21:14:56Z</time>
      </trkpt>
      <trkpt lat="51.232074988386" lon="4.461475571043">
        <ele>3.6</ele>
        <time>2019-01-22T21:15:24Z</time>
      </trkpt>
      <trkpt lat="51.232216223401" lon="4.461952501153">
        <ele>3.2</ele>
        <time>2019-01-22T21:17:11Z</time>
      </trkpt>
      <trkpt lat="51.23222804188" lon="4.462083426431">
        <ele>0.8</ele>
        <time>2019-01-22T21:17:30Z</time>
      </trkpt>
      <trkpt lat="51.232200046334" lon="4.462195995348">
        <ele>2.2</ele>
        <time>2019-01-22T21:17:43Z</time>
      </trkpt>
      <trkpt lat="51.23221127808" lon="4.462322478219">
        <ele>0.2</ele>
        <time>2019-01-22T21:17:54Z</time>
      </trkpt>
      <trkpt lat="51.232242374929" lon="4.462398753509">
        <ele>0.2</ele>
        <time>2019-01-22T21:18:00Z</time>
      </trkpt>
      <trkpt lat="51.232291073768" lon="4.462524230552">
        <ele>1.6</ele>
        <time>2019-01-22T21:18:11Z</time>
      </trkpt>
      <trkpt lat="51.232224521482" lon="4.46255289665">
        <ele>5</ele>
        <time>2019-01-22T21:18:22Z</time>
      </trkpt>
      <trkpt lat="51.232193256995" lon="4.462535210841">
        <ele>6.4</ele>
        <time>2019-01-22T21:18:25Z</time>
      </trkpt>
      <trkpt lat="51.232128213451" lon="4.46261492271">
        <ele>9.8</ele>
        <time>2019-01-22T21:18:37Z</time>
      </trkpt>
      <trkpt lat="51.232135338066" lon="4.462753810793">
        <ele>6</ele>
        <time>2019-01-22T21:19:20Z</time>
      </trkpt>
      <trkpt lat="51.232095356403" lon="4.462936200937">
        <ele>1.2</ele>
        <time>2019-01-22T21:19:40Z</time>
      </trkpt>
      <trkpt lat="51.231921599616" lon="4.463472977813">
        <ele>14</ele>
        <time>2019-01-22T21:21:12Z</time>
      </trkpt>
      <trkpt lat="51.23175362634" lon="4.463531148199">
        <ele>10.4</ele>
        <time>2019-01-22T21:21:37Z</time>
      </trkpt>
      <trkpt lat="51.231513149629" lon="4.463303244338">
        <ele>0.4</ele>
        <time>2019-01-22T21:22:08Z</time>
      </trkpt>
      <trkpt lat="51.231583641408" lon="4.463145580799">
        <ele>2.4</ele>
        <time>2019-01-22T21:22:25Z</time>
      </trkpt>
      <trkpt lat="51.231583054675" lon="4.463009123467">
        <ele>0.8</ele>
        <time>2019-01-22T21:22:37Z</time>
      </trkpt>
      <trkpt lat="51.231577774078" lon="4.462971907831">
        <ele>0.6</ele>
        <time>2019-01-22T21:22:40Z</time>
      </trkpt>
      <trkpt lat="51.231590430747" lon="4.462277718873">
        <ele>0</ele>
        <time>2019-01-22T21:23:15Z</time>
      </trkpt>
      <trkpt lat="51.231603255054" lon="4.462194235149">
        <ele>9.4</ele>
        <time>2019-01-22T21:24:04Z</time>
      </trkpt>
      <trkpt lat="51.23153737332" lon="4.461781258936">
        <ele>3.6</ele>
        <time>2019-01-22T21:24:47Z</time>
      </trkpt>
      <trkpt lat="51.231416925417" lon="4.461665923992">
        <ele>1</ele>
        <time>2019-01-22T21:25:03Z</time>
      </trkpt>
      <trkpt lat="51.231126241125" lon="4.461721579808">
        <ele>0</ele>
        <time>2019-01-22T21:25:43Z</time>
      </trkpt>
      <trkpt lat="51.230789791659" lon="4.461969767867">
        <ele>9.4</ele>
        <time>2019-01-22T21:27:08Z</time>
      </trkpt>
      <trkpt lat="51.230635648518" lon="4.46195275261">
        <ele>22</ele>
        <time>2019-01-22T21:27:35Z</time>
      </trkpt>
      <trkpt lat="51.230208255437" lon="4.462123994827">
        <ele>41</ele>
        <time>2019-01-22T21:28:25Z</time>
      </trkpt>
      <trkpt lat="51.230171877991" lon="4.462146206862">
        <ele>40.4</ele>
        <time>2019-01-22T21:28:29Z</time>
      </trkpt>
      <trkpt lat="51.230127873016" lon="4.462183757774">
        <ele>38</ele>
        <time>2019-01-22T21:28:35Z</time>
      </trkpt>
      <trkpt lat="51.230040198342" lon="4.462204796343">
        <ele>15.4</ele>
        <time>2019-01-22T21:28:51Z</time>
      </trkpt>
      <trkpt lat="51.230026703483" lon="4.462174286227">
        <ele>13.6</ele>
        <time>2019-01-22T21:28:54Z</time>
      </trkpt>
      <trkpt lat="51.229934670221" lon="4.461782935316">
        <ele>4.6</ele>
        <time>2019-01-22T21:29:27Z</time>
      </trkpt>
      <trkpt lat="51.229650775268" lon="4.461287565026">
        <ele>7.8</ele>
        <time>2019-01-22T21:30:20Z</time>
      </trkpt>
      <trkpt lat="51.229573661788" lon="4.461310363794">
        <ele>10</ele>
        <time>2019-01-22T21:30:30Z</time>
      </trkpt>
      <trkpt lat="51.229300747124" lon="4.461279099307">
        <ele>1</ele>
        <time>2019-01-22T21:31:05Z</time>
      </trkpt>
      <trkpt lat="51.229228578965" lon="4.461206512053">
        <ele>1.6</ele>
        <time>2019-01-22T21:31:13Z</time>
      </trkpt>
      <trkpt lat="51.228778554754" lon="4.461283457895">
        <ele>10.8</ele>
        <time>2019-01-22T21:31:55Z</time>
      </trkpt>
      <trkpt lat="51.228592895669" lon="4.461310447613">
        <ele>17.2</ele>
        <time>2019-01-22T21:32:15Z</time>
      </trkpt>
      <trkpt lat="51.228433136655" lon="4.461264682439">
        <ele>23</ele>
        <time>2019-01-22T21:32:40Z</time>
      </trkpt>
      <trkpt lat="51.228292823649" lon="4.460656491775">
        <ele>7.8</ele>
        <time>2019-01-22T21:33:31Z</time>
      </trkpt>
      <trkpt lat="51.228270863071" lon="4.460523722479">
        <ele>1.6</ele>
        <time>2019-01-22T21:33:59Z</time>
      </trkpt>
      <trkpt lat="51.22810833803" lon="4.460393886848">
        <ele>10.4</ele>
        <time>2019-01-22T21:34:18Z</time>
      </trkpt>
      <trkpt lat="51.228171118461" lon="4.460232367635">
        <ele>8.6</ele>
        <time>2019-01-22T21:34:29Z</time>
      </trkpt>
      <trkpt lat="51.228405392566" lon="4.459645718454">
        <ele>9</ele>
        <time>2019-01-22T21:35:08Z</time>
      </trkpt>
      <trkpt lat="51.228522320071" lon="4.458974412083">
        <ele>5.8</ele>
        <time>2019-01-22T21:35:47Z</time>
      </trkpt>
      <trkpt lat="51.228508070841" lon="4.458374854776">
        <ele>3.6</ele>
        <time>2019-01-22T21:36:30Z</time>
      </trkpt>
      <trkpt lat="51.228432801379" lon="4.457774710736">
        <ele>2.4</ele>
        <time>2019-01-22T21:37:09Z</time>
      </trkpt>
      <trkpt lat="51.228457695622" lon="4.45756315158">
        <ele>8.2</ele>
        <time>2019-01-22T21:37:37Z</time>
      </trkpt>
      <trkpt lat="51.228586190149" lon="4.457220667146">
        <ele>14.6</ele>
        <time>2019-01-22T21:38:11Z</time>
      </trkpt>
      <trkpt lat="51.229014002325" lon="4.45696384573">
        <ele>31.2</ele>
        <time>2019-01-22T21:38:52Z</time>
      </trkpt>
      <trkpt lat="51.229099330067" lon="4.456871225735">
        <ele>32.4</ele>
        <time>2019-01-22T21:39:12Z</time>
      </trkpt>
      <trkpt lat="51.229493195548" lon="4.456612727939">
        <ele>24.4</ele>
        <time>2019-01-22T21:40:04Z</time>
      </trkpt>
      <trkpt lat="51.229512222461" lon="4.456600490365">
        <ele>23</ele>
        <time>2019-01-22T21:40:07Z</time>
      </trkpt>
      <trkpt lat="51.229723949255" lon="4.457230641607">
        <ele>35.6</ele>
        <time>2019-01-22T21:40:31Z</time>
      </trkpt>
      <trkpt lat="51.229832327222" lon="4.457907396213">
        <ele>5</ele>
        <time>2019-01-22T21:41:13Z</time>
      </trkpt>
      <trkpt lat="51.229651278182" lon="4.458081153">
        <ele>1.2</ele>
        <time>2019-01-22T21:42:08Z</time>
      </trkpt>
    </trkseg>
  </trk>
</gpx>